Time;durP1;ratioP1;P1;durP2;ratioP2;P2;SDS_P1;SDS_P2;PMS_P1;PMS_P2;Temp;Humidity;BMP_temperature;BMP_pressure;BME280_temperature;BME280_humidity;BME280_pressure;Samples;Min_cycle;Max_cycle;Signal;HPM_P1;HPM_P2
2022/10/12 00:02:24;;;;;;;;;11.00;10.75;;;;;14.17;58.14;102010.19;5076282;28;45630;-69
2022/10/12 00:04:50;;;;;;;;;14.50;12.75;;;;;14.05;58.19;102006.34;5076205;28;47209;-69
2022/10/12 00:07:15;;;;;;;;;10.50;9.00;;;;;14.08;58.56;102011.56;5076298;28;45392;-69
2022/10/12 00:09:40;;;;;;;;;11.50;10.75;;;;;13.46;58.78;101916.47;5076530;28;45391;-69
2022/10/12 00:12:06;;;;;;;;;12.25;12.25;;;;;14.03;58.74;102011.81;5075163;28;46269;-69
2022/10/12 00:14:35;;;;;;;;;12.25;12.25;;;;;14.03;58.29;102010.94;5076137;28;46359;-69
2022/10/12 00:17:01;;;;;;;;;10.00;10.00;;;;;14.04;58.66;102010.84;5076227;28;45404;-69
2022/10/12 00:19:26;;;;;;;;;15.00;12.50;;;;;14.04;58.72;102018.91;5076211;28;45907;-69
2022/10/12 00:21:51;;;;;;;;;11.75;11.25;;;;;14.03;58.57;102014.47;5075945;28;45227;-69
2022/10/12 00:24:17;;;;;;;;;8.25;8.00;;;;;14.01;58.76;102013.72;5076100;28;46974;-69
2022/10/12 00:26:42;;;;;;;;;13.25;11.75;;;;;13.98;58.90;102019.22;5076056;27;45380;-69
2022/10/12 00:29:08;;;;;;;;;15.50;12.25;;;;;13.68;58.93;101968.09;5075964;28;45443;-68
2022/10/12 00:31:33;;;;;;;;;12.25;11.50;;;;;13.96;58.91;102019.31;5076246;28;45398;-69
2022/10/12 00:34:01;;;;;;;;;14.25;12.25;;;;;13.93;59.23;102011.44;5076010;28;45385;-69
2022/10/12 00:36:31;;;;;;;;;13.50;12.25;;;;;13.62;59.17;101963.94;5075563;28;45436;-69
2022/10/12 00:38:57;;;;;;;;;14.00;14.00;;;;;13.89;59.07;102025.09;5076201;28;45375;-69
2022/10/12 00:41:35;;;;;;;;;15.00;14.00;;;;;13.85;58.88;102020.81;5075737;28;45444;-69
2022/10/12 00:44:00;;;;;;;;;13.25;13.25;;;;;13.82;59.46;102026.34;5075768;28;48173;-68
2022/10/12 00:46:31;;;;;;;;;15.75;13.00;;;;;13.79;59.42;102020.22;5075770;27;45410;-68
2022/10/12 00:49:23;;;;;;;;;14.50;14.50;;;;;13.60;59.38;101984.59;5076232;28;45482;-68
2022/10/12 00:51:58;;;;;;;;;16.00;13.00;;;;;13.78;59.37;102015.81;5074651;28;45500;-68
2022/10/12 00:54:31;;;;;;;;;17.50;15.00;;;;;13.79;59.25;102008.59;5075024;28;47185;-68
2022/10/12 00:57:01;;;;;;;;;13.00;11.00;;;;;13.77;59.46;102022.09;5075718;28;45397;-67
2022/10/12 00:59:37;;;;;;;;;12.75;11.75;;;;;13.69;59.46;102002.88;5075113;28;45305;-68
2022/10/12 01:02:02;;;;;;;;;13.75;12.50;;;;;13.75;59.48;102018.66;5074953;28;45494;-68
2022/10/12 01:04:30;;;;;;;;;16.00;14.00;;;;;13.74;59.34;102013.34;5090587;27;47478;-68
2022/10/12 01:06:56;;;;;;;;;13.00;11.75;;;;;13.73;59.51;102011.63;5075428;27;45551;-69
2022/10/12 01:09:22;;;;;;;;;14.25;13.50;;;;;13.43;59.85;101964.03;5074884;28;45388;-67
2022/10/12 01:11:47;;;;;;;;;14.00;12.25;;;;;13.68;59.74;102005.63;5075466;28;45531;-69
2022/10/12 01:14:13;;;;;;;;;14.25;12.25;;;;;13.66;59.96;102004.84;5075047;27;45456;-68
2022/10/12 01:17:09;;;;;;;;;14.50;12.75;;;;;13.60;59.75;101997.97;5074871;28;45389;-68
2022/10/12 01:19:40;;;;;;;;;13.00;11.50;;;;;13.62;59.97;102006.84;5073883;28;45539;-67
2022/10/12 01:22:09;;;;;;;;;13.50;12.25;;;;;13.55;60.25;101994.66;5075443;28;45377;-68
2022/10/12 01:24:53;;;;;;;;;16.75;12.00;;;;;13.54;60.08;102007.22;5075177;28;47545;-67
2022/10/12 01:27:46;;;;;;;;;16.00;12.75;;;;;13.54;60.02;101998.31;5074835;28;45412;-67
2022/10/12 01:30:41;;;;;;;;;14.00;10.25;;;;;13.53;60.42;101999.25;5075437;28;45384;-68
2022/10/12 01:33:22;;;;;;;;;14.75;11.75;;;;;13.52;60.46;101994.84;5075096;28;45531;-67
2022/10/12 01:35:52;;;;;;;;;10.25;10.25;;;;;13.51;60.17;101998.47;5074958;28;47449;-69
2022/10/12 01:38:21;;;;;;;;;14.50;12.50;;;;;13.50;60.33;102002.97;5075198;28;45446;-69
2022/10/12 01:41:28;;;;;;;;;13.00;12.00;;;;;13.49;60.34;101995.00;5074057;28;45296;-68
2022/10/12 01:43:53;;;;;;;;;12.00;12.00;;;;;12.83;60.19;101884.00;5067271;28;45502;-68
2022/10/12 01:46:19;;;;;;;;;12.75;11.00;;;;;13.49;60.60;101998.53;5074527;28;46331;-70
2022/10/12 01:48:48;;;;;;;;;13.75;13.00;;;;;13.45;60.35;102000.50;5074598;28;45312;-69
2022/10/12 01:51:42;;;;;;;;;12.75;11.75;;;;;13.46;60.49;101994.22;5074617;28;45539;-68
2022/10/12 01:54:25;;;;;;;;;13.00;13.00;;;;;13.36;60.30;101976.88;5074627;28;45303;-69
2022/10/12 01:57:01;;;;;;;;;10.00;7.75;;;;;13.43;60.59;101997.06;5074473;27;46423;-69
2022/10/12 01:59:34;;;;;;;;;14.00;13.50;;;;;13.42;61.05;101994.47;5074435;28;45507;-70
2022/10/12 02:02:28;;;;;;;;;15.75;15.50;;;;;13.41;60.81;101988.22;5074671;28;45365;-70
2022/10/12 02:05:04;;;;;;;;;13.25;11.50;;;;;13.41;60.81;101990.88;5073977;28;45562;-67
2022/10/12 02:08:02;;;;;;;;;14.75;12.25;;;;;13.37;61.03;101985.78;5074069;28;47360;-68
2022/10/12 02:11:08;;;;;;;;;11.50;11.50;;;;;13.33;61.34;101984.16;5073812;27;45452;-68
2022/10/12 02:13:42;;;;;;;;;14.25;10.25;;;;;13.29;61.70;101983.44;5071406;28;45350;-68
2022/10/12 02:16:12;;;;;;;;;10.75;10.25;;;;;13.22;61.46;101972.19;5074341;28;45474;-68
2022/10/12 02:18:43;;;;;;;;;12.75;12.50;;;;;13.24;61.42;101980.13;5073670;28;46204;-68
2022/10/12 02:21:12;;;;;;;;;14.00;12.25;;;;;13.23;61.35;101973.06;5074180;28;45508;-68
2022/10/12 02:23:38;;;;;;;;;10.75;9.50;;;;;13.16;61.65;101975.19;5075138;28;45405;-68
2022/10/12 02:26:05;;;;;;;;;16.25;13.75;;;;;13.11;61.66;101979.91;5076273;28;45351;-68
2022/10/12 02:28:34;;;;;;;;;14.75;11.75;;;;;12.76;61.71;101913.75;5075813;28;46134;-69
2022/10/12 02:31:24;;;;;;;;;11.75;11.00;;;;;13.08;62.15;101970.22;5073148;28;45531;-68
2022/10/12 02:34:17;;;;;;;;;10.25;10.25;;;;;13.03;61.68;101966.03;5074103;28;45549;-67
2022/10/12 02:36:59;;;;;;;;;12.25;10.50;;;;;13.04;61.69;101957.91;5074446;28;45451;-68
2022/10/12 02:39:31;;;;;;;;;12.50;12.50;;;;;13.07;61.89;101952.41;5074191;28;46582;-68
2022/10/12 02:42:03;;;;;;;;;11.00;10.75;;;;;13.06;61.70;101952.47;5074012;28;45318;-69
2022/10/12 02:44:33;;;;;;;;;9.25;8.00;;;;;13.04;61.82;101952.56;5073773;27;45437;-69
2022/10/12 02:47:03;;;;;;;;;15.75;12.75;;;;;13.02;62.01;101949.06;5073961;27;45396;-68
2022/10/12 02:49:31;;;;;;;;;9.50;9.50;;;;;13.02;61.96;101941.03;5073717;27;45517;-69
2022/10/12 02:51:57;;;;;;;;;7.75;4.75;;;;;12.98;62.13;101939.47;5073915;27;45372;-69
2022/10/12 02:54:22;;;;;;;;;14.00;12.75;;;;;12.98;61.94;101942.13;5074241;27;45342;-68
2022/10/12 02:56:48;;;;;;;;;10.00;10.00;;;;;12.98;62.01;101965.38;5074005;27;45358;-68
2022/10/12 02:59:16;;;;;;;;;10.75;10.75;;;;;12.92;61.71;101951.34;5073875;27;46037;-68
2022/10/12 03:01:41;;;;;;;;;10.25;10.25;;;;;12.95;62.11;101950.34;5070034;27;45543;-68
2022/10/12 03:04:07;;;;;;;;;11.00;11.00;;;;;12.93;62.04;101950.41;5073875;28;45312;-68
2022/10/12 03:06:33;;;;;;;;;13.50;12.00;;;;;12.51;62.29;101868.63;5073673;28;45299;-68
2022/10/12 03:08:58;;;;;;;;;11.00;10.00;;;;;12.89;62.30;101940.81;5073644;28;45871;-69
2022/10/12 03:11:24;;;;;;;;;9.25;9.25;;;;;12.89;62.43;101942.59;5068958;28;45521;-69
2022/10/12 03:13:56;;;;;;;;;12.00;9.25;;;;;12.88;62.72;101938.22;5051279;28;45452;-68
2022/10/12 03:16:22;;;;;;;;;10.25;8.50;;;;;12.89;62.30;101942.59;5052969;28;45316;-69
2022/10/12 03:18:48;;;;;;;;;11.25;10.25;;;;;12.76;62.60;101927.16;5053080;28;46351;-69
2022/10/12 03:21:13;;;;;;;;;10.00;8.75;;;;;12.86;62.37;101940.09;5053181;28;45410;-70
2022/10/12 03:23:39;;;;;;;;;13.50;10.00;;;;;12.77;62.10;101939.59;5054503;28;45531;-69
2022/10/12 03:26:04;;;;;;;;;12.25;10.50;;;;;12.72;62.69;101947.00;5057138;28;45414;-69
2022/10/12 03:28:30;;;;;;;;;14.25;11.25;;;;;12.73;62.03;101938.03;5056468;28;46284;-69
2022/10/12 03:30:56;;;;;;;;;10.75;10.25;;;;;12.52;62.19;101909.63;5056842;28;45376;-69
2022/10/12 03:33:22;;;;;;;;;14.50;11.25;;;;;12.72;62.24;101936.28;5057257;28;45413;-69
2022/10/12 03:35:47;;;;;;;;;11.00;9.50;;;;;12.72;62.62;101941.63;5057528;28;45420;-69
2022/10/12 03:38:14;;;;;;;;;8.50;8.50;;;;;12.62;62.38;101919.81;5057533;28;46043;-69
2022/10/12 03:40:40;;;;;;;;;10.50;9.75;;;;;12.75;62.13;101936.16;5057634;28;45332;-69
2022/10/12 03:43:05;;;;;;;;;10.75;9.25;;;;;12.71;61.84;101939.88;5056890;28;45244;-69
2022/10/12 03:45:31;;;;;;;;;11.50;11.00;;;;;12.59;62.08;101919.09;5056789;28;45389;-69
2022/10/12 03:47:57;;;;;;;;;11.25;8.75;;;;;12.70;62.42;101943.53;5056689;28;45344;-69
2022/10/12 03:50:22;;;;;;;;;12.00;10.00;;;;;12.67;62.31;101943.66;5056566;28;45310;-69
2022/10/12 03:52:48;;;;;;;;;8.50;6.00;;;;;12.68;62.28;101947.22;5055605;28;45302;-69
2022/10/12 03:55:13;;;;;;;;;11.50;10.25;;;;;12.66;62.21;101941.97;5057237;28;45410;-68
2022/10/12 03:57:39;;;;;;;;;10.00;10.00;;;;;12.21;62.46;101881.69;5056733;28;45260;-70
2022/10/12 04:00:05;;;;;;;;;10.50;9.75;;;;;12.55;62.40;101934.44;5056535;28;45464;-68
2022/10/12 04:02:30;;;;;;;;;15.75;14.75;;;;;12.51;62.46;101935.53;5056836;28;45446;-68
2022/10/12 04:04:56;;;;;;;;;11.25;9.00;;;;;12.61;62.71;101943.97;5056598;28;45573;-68
2022/10/12 04:07:21;;;;;;;;;16.25;13.25;;;;;12.58;62.61;101942.31;5055073;28;47231;-68
2022/10/12 04:09:46;;;;;;;;;12.75;11.50;;;;;12.51;62.71;101948.03;5061329;28;45302;-68
2022/10/12 04:12:12;;;;;;;;;10.75;10.00;;;;;12.52;63.15;101949.78;5077333;28;45372;-67
2022/10/12 04:14:38;;;;;;;;;10.50;10.50;;;;;12.40;62.75;101932.50;5077067;28;45542;-68
2022/10/12 04:17:03;;;;;;;;;12.75;10.75;;;;;12.49;62.85;101949.94;5077353;28;45433;-69
2022/10/12 04:19:28;;;;;;;;;14.25;10.75;;;;;12.47;62.81;101951.81;5077307;28;45461;-68
2022/10/12 04:21:54;;;;;;;;;12.25;11.25;;;;;12.38;62.93;101961.16;5077059;28;45375;-67
2022/10/12 04:24:19;;;;;;;;;15.50;11.00;;;;;12.35;62.88;101959.50;5077290;28;45464;-67
2022/10/12 04:26:44;;;;;;;;;11.50;11.50;;;;;11.82;63.24;101885.28;5076602;27;46969;-67
2022/10/12 04:29:12;;;;;;;;;10.00;10.00;;;;;12.18;63.21;101935.34;5076641;28;45295;-67
2022/10/12 04:31:37;;;;;;;;;13.75;10.00;;;;;12.38;63.24;101966.50;5077255;28;45259;-68
2022/10/12 04:34:03;;;;;;;;;16.50;12.75;;;;;12.37;62.77;101968.28;5076888;27;45376;-70
2022/10/12 04:36:28;;;;;;;;;9.25;9.25;;;;;12.28;63.76;101971.41;5076029;28;47991;-69
2022/10/12 04:38:53;;;;;;;;;14.00;10.25;;;;;12.29;63.05;101970.47;5076570;28;45318;-69
2022/10/12 04:41:19;;;;;;;;;10.00;10.00;;;;;12.35;63.30;101963.94;5092119;27;45292;-69
2022/10/12 04:43:44;;;;;;;;;10.00;9.25;;;;;12.31;63.06;101968.59;5075478;28;45410;-68
2022/10/12 04:46:10;;;;;;;;;13.75;11.00;;;;;12.33;63.35;101963.19;5076241;28;45420;-68
2022/10/12 04:48:35;;;;;;;;;8.00;8.00;;;;;12.34;62.94;101962.25;5076297;28;45321;-68
2022/10/12 04:51:01;;;;;;;;;11.75;9.25;;;;;12.33;63.48;101972.06;5076307;27;45176;-68
2022/10/12 04:53:26;;;;;;;;;10.00;10.00;;;;;11.86;63.06;101886.84;5075980;28;45380;-67
2022/10/12 04:55:51;;;;;;;;;12.00;11.50;;;;;12.28;63.04;101950.00;5075878;27;46386;-68
2022/10/12 04:58:17;;;;;;;;;10.00;10.00;;;;;12.31;63.36;101957.91;5075590;27;45384;-68
2022/10/12 05:00:42;;;;;;;;;12.75;9.75;;;;;12.20;63.13;101938.78;5075975;27;45469;-68
2022/10/12 05:03:08;;;;;;;;;10.00;10.00;;;;;12.23;63.73;101952.06;5075840;27;45368;-68
2022/10/12 05:05:34;;;;;;;;;9.50;9.50;;;;;12.21;63.52;101957.44;5075900;28;45931;-68
2022/10/12 05:08:00;;;;;;;;;10.00;9.00;;;;;12.25;63.43;101953.72;5075846;28;45235;-69
2022/10/12 05:10:26;;;;;;;;;10.25;9.75;;;;;12.24;63.57;101945.72;5076409;28;45308;-69
2022/10/12 05:12:51;;;;;;;;;9.00;9.00;;;;;12.16;63.78;101953.25;5075835;28;45382;-70
2022/10/12 05:15:17;;;;;;;;;11.00;11.00;;;;;11.97;63.61;101931.84;5091392;27;45750;-69
2022/10/12 05:17:42;;;;;;;;;14.25;14.25;;;;;12.05;63.63;101951.97;5075510;28;45319;-69
2022/10/12 05:20:09;;;;;;;;;14.00;12.75;;;;;12.09;63.76;101953.56;5075675;28;45761;-68
2022/10/12 05:22:34;;;;;;;;;13.50;10.50;;;;;12.13;64.02;101956.09;5075695;27;45314;-69
2022/10/12 05:24:59;;;;;;;;;19.25;17.50;;;;;12.10;64.31;101954.41;5075092;28;45498;-70
2022/10/12 05:27:24;;;;;;;;;31.00;26.75;;;;;12.10;64.36;101960.63;5075856;27;45297;-68
2022/10/12 05:29:50;;;;;;;;;19.25;19.25;;;;;11.77;64.30;101905.06;5075633;27;45290;-68
2022/10/12 05:32:16;;;;;;;;;13.25;12.00;;;;;12.09;64.25;101963.38;5074959;27;45602;-70
2022/10/12 05:34:42;;;;;;;;;12.50;12.00;;;;;11.72;63.79;101898.19;5090902;27;47266;-71
2022/10/12 05:37:07;;;;;;;;;12.75;10.75;;;;;12.14;64.08;101961.34;5074375;28;45848;-70
2022/10/12 05:39:33;;;;;;;;;12.00;11.00;;;;;12.06;64.04;101958.16;5076610;28;45419;-69
2022/10/12 05:41:58;;;;;;;;;9.75;9.75;;;;;12.13;63.88;101969.44;5077452;28;45312;-70
2022/10/12 05:44:23;;;;;;;;;14.25;12.00;;;;;12.07;63.76;101959.91;5075060;28;45412;-70
2022/10/12 05:46:49;;;;;;;;;8.00;7.25;;;;;12.01;64.37;101945.03;5074830;28;45350;-70
2022/10/12 05:49:14;;;;;;;;;14.75;11.00;;;;;12.06;63.99;101958.16;5057349;28;45352;-70
2022/10/12 05:51:39;;;;;;;;;11.00;11.00;;;;;11.86;64.27;101922.47;5075147;28;45284;-69
2022/10/12 05:54:05;;;;;;;;;12.00;10.75;;;;;12.00;63.93;101958.44;5075018;28;45409;-69
2022/10/12 05:56:30;;;;;;;;;12.25;12.25;;;;;11.89;63.67;101940.19;5073918;28;45902;-69
2022/10/12 05:58:56;;;;;;;;;12.00;10.00;;;;;11.76;63.99;101913.16;5074802;27;45448;-69
2022/10/12 06:01:21;;;;;;;;;9.25;8.75;;;;;11.93;64.00;101942.66;5073824;28;45522;-69
2022/10/12 06:03:46;;;;;;;;;18.75;17.00;;;;;11.91;64.14;101954.38;5074927;28;45476;-71
2022/10/12 06:06:12;;;;;;;;;15.25;15.25;;;;;11.92;64.38;101954.28;5075168;28;45387;-71
2022/10/12 06:08:37;;;;;;;;;18.50;17.50;;;;;11.87;64.29;101947.44;5074621;28;45458;-71
2022/10/12 06:11:02;;;;;;;;;19.00;19.00;;;;;11.85;63.97;101960.88;5074324;28;45481;-70
2022/10/12 06:13:28;;;;;;;;;15.50;14.25;;;;;11.87;63.94;101958.13;5075104;27;45451;-71
2022/10/12 06:15:53;;;;;;;;;16.75;15.25;;;;;11.86;64.51;101962.56;5106653;27;45312;-71
2022/10/12 06:18:19;;;;;;;;;17.25;15.75;;;;;11.80;64.89;101952.19;5074848;27;45397;-71
2022/10/12 06:20:51;;;;;;;;;15.00;14.25;;;;;11.86;64.85;101962.56;5074092;28;45626;-71
2022/10/12 06:23:17;;;;;;;;;20.50;18.25;;;;;11.92;64.70;101969.47;5074721;27;45369;-71
2022/10/12 06:25:44;;;;;;;;;15.50;14.25;;;;;11.60;64.39;101918.31;5074787;28;45425;-71
2022/10/12 06:28:10;;;;;;;;;15.50;13.00;;;;;11.90;64.43;101971.34;5075048;28;45541;-71
2022/10/12 06:30:35;;;;;;;;;16.75;13.75;;;;;11.96;64.10;101979.13;5074748;27;45495;-71
2022/10/12 06:33:00;;;;;;;;;17.50;16.75;;;;;12.00;63.50;101985.19;5075232;28;46197;-71
2022/10/12 06:35:26;;;;;;;;;14.50;14.25;;;;;12.02;64.16;101988.66;5075108;27;45469;-71
2022/10/12 06:37:52;;;;;;;;;14.25;14.00;;;;;11.95;63.79;101982.72;5074605;27;45527;-71
2022/10/12 06:40:18;;;;;;;;;15.50;15.50;;;;;11.87;64.27;101979.50;5075178;27;45372;-71
2022/10/12 06:42:44;;;;;;;;;18.50;18.50;;;;;12.00;64.39;101985.19;5074896;27;46139;-72
2022/10/12 06:45:10;;;;;;;;;15.75;15.75;;;;;12.04;64.14;101990.34;5074477;28;45364;-71
2022/10/12 06:47:35;;;;;;;;;16.00;14.50;;;;;12.06;64.49;101987.59;5073885;28;45268;-71
2022/10/12 06:50:01;;;;;;;;;17.25;16.50;;;;;12.06;63.50;101992.94;5074494;27;45463;-70
2022/10/12 06:52:26;;;;;;;;;16.75;14.75;;;;;12.09;63.98;101995.47;5074227;27;45926;-71
2022/10/12 06:54:52;;;;;;;;;20.25;18.25;;;;;11.89;64.00;101961.56;5074859;27;45371;-71
2022/10/12 06:57:17;;;;;;;;;16.50;13.00;;;;;12.08;63.59;102005.31;5072173;28;45843;-70
2022/10/12 06:59:42;;;;;;;;;19.00;16.75;;;;;11.96;63.89;101987.16;5075886;28;45390;-70
2022/10/12 07:02:10;;;;;;;;;20.50;19.25;;;;;12.01;64.50;102006.53;5077946;27;47345;-70
2022/10/12 07:04:35;;;;;;;;;17.25;17.00;;;;;12.08;64.58;102004.44;5078118;27;45424;-71
2022/10/12 07:07:01;;;;;;;;;18.00;18.00;;;;;11.89;64.47;101985.63;5077779;27;45462;-71
2022/10/12 07:09:26;;;;;;;;;20.50;19.25;;;;;12.13;64.11;102012.25;5077842;27;45361;-71
2022/10/12 07:11:51;;;;;;;;;19.50;18.25;;;;;12.04;64.49;101993.00;5077842;27;47007;-71
2022/10/12 07:14:17;;;;;;;;;20.00;17.50;;;;;11.80;63.83;101956.66;5078054;28;45424;-71
2022/10/12 07:16:42;;;;;;;;;17.00;16.00;;;;;11.86;64.49;101953.69;5077097;28;45586;-72
2022/10/12 07:19:07;;;;;;;;;19.00;16.75;;;;;11.69;64.62;101920.59;5076903;28;45374;-71
2022/10/12 07:21:33;;;;;;;;;22.75;20.75;;;;;12.32;63.52;102004.25;5078121;27;45364;-70
2022/10/12 07:23:58;;;;;;;;;24.25;23.00;;;;;12.36;63.61;102009.41;5078050;28;45429;-71
2022/10/12 07:26:23;;;;;;;;;21.00;18.75;;;;;12.25;64.22;102001.88;5078237;28;45296;-71
2022/10/12 07:28:49;;;;;;;;;16.75;13.75;;;;;12.36;63.87;102006.72;5076644;28;45459;-70
2022/10/12 07:31:14;;;;;;;;;20.00;19.00;;;;;12.47;64.19;102010.69;5078633;28;46280;-70
2022/10/12 07:33:39;;;;;;;;;24.75;20.00;;;;;12.49;63.52;102006.13;5078290;28;45424;-71
2022/10/12 07:36:06;;;;;;;;;22.25;21.75;;;;;12.62;63.07;102012.66;5077775;27;45292;-72
2022/10/12 07:38:31;;;;;;;;;18.50;16.75;;;;;12.58;63.60;101995.00;5077886;28;45751;-70
2022/10/12 07:40:59;;;;;;;;;23.25;20.25;;;;;12.75;63.03;102015.59;5077747;28;47027;-70
2022/10/12 07:43:24;;;;;;;;;28.25;22.25;;;;;12.72;62.84;102016.59;5078279;27;45305;-71
2022/10/12 07:45:49;;;;;;;;;23.00;21.50;;;;;12.84;63.66;102015.16;5077581;28;45488;-72
2022/10/12 07:48:15;;;;;;;;;23.50;22.25;;;;;12.85;62.77;102021.34;5076069;28;45553;-72
2022/10/12 07:50:40;;;;;;;;;23.25;21.00;;;;;12.83;62.72;102032.16;5092759;27;46598;-73
2022/10/12 07:53:05;;;;;;;;;27.75;25.00;;;;;12.45;63.18;101971.47;5076040;28;45448;-72
2022/10/12 07:55:31;;;;;;;;;22.25;19.25;;;;;12.89;62.88;102033.66;5077173;28;45341;-72
2022/10/12 07:58:00;;;;;;;;;21.00;19.50;;;;;12.76;63.48;102003.94;5076851;28;45426;-72
2022/10/12 08:00:26;;;;;;;;;22.50;22.50;;;;;13.04;62.69;102038.28;5076865;28;46241;-72
2022/10/12 08:02:51;;;;;;;;;20.50;19.75;;;;;12.34;62.36;101903.38;5075451;27;45360;-72
2022/10/12 08:05:20;;;;;;;;;23.75;19.50;;;;;13.12;62.56;102025.38;5076929;28;45499;-72
2022/10/12 08:07:46;;;;;;;;;19.25;16.50;;;;;13.16;62.24;102036.81;5075808;28;45401;-72
2022/10/12 08:10:11;;;;;;;;;21.75;20.00;;;;;13.25;62.51;102047.06;5076069;28;45353;-72
2022/10/12 08:12:37;;;;;;;;;21.50;21.50;;;;;13.36;61.84;102037.63;5076459;28;45310;-73
2022/10/12 08:15:02;;;;;;;;;23.75;22.00;;;;;13.38;61.84;102033.94;5076682;28;45359;-72
2022/10/12 08:17:28;;;;;;;;;23.75;20.50;;;;;13.51;62.21;102038.66;5076617;28;45505;-71
2022/10/12 08:19:53;;;;;;;;;22.25;21.00;;;;;13.68;61.15;102040.50;5076125;28;46528;-71
2022/10/12 08:22:18;;;;;;;;;20.75;19.75;;;;;13.84;60.55;102046.78;5076815;28;45345;-71
2022/10/12 08:24:44;;;;;;;;;21.75;21.75;;;;;14.44;59.41;102048.94;5075882;28;45518;-71
2022/10/12 08:27:09;;;;;;;;;21.25;20.75;;;;;15.07;57.65;102041.88;5076940;28;45310;-72
2022/10/12 08:29:34;;;;;;;;;22.75;21.00;;;;;17.28;54.23;102030.91;5076581;28;47057;-72
2022/10/12 08:32:00;;;;;;;;;19.75;19.75;;;;;18.77;48.86;102034.91;5076230;28;45302;-73
2022/10/12 08:34:26;;;;;;;;;21.00;19.00;;;;;18.47;49.12;102035.31;5076613;28;45316;-72
2022/10/12 08:36:52;;;;;;;;;19.00;18.00;;;;;20.43;46.17;102017.66;5076414;28;45293;-73
2022/10/12 08:39:17;;;;;;;;;18.50;18.25;;;;;23.18;41.04;102018.41;5076154;28;45349;-72
2022/10/12 08:42:07;;;;;;;;;16.75;15.75;;;;;25.34;37.33;102018.38;5077344;28;45271;-71
2022/10/12 08:44:44;;;;;;;;;27.25;23.75;;;;;26.47;33.90;102000.31;5077847;28;45431;-71
2022/10/12 08:47:50;;;;;;;;;23.75;19.50;;;;;27.88;33.17;102014.97;5077243;28;45503;-73
2022/10/12 08:50:34;;;;;;;;;20.75;17.50;;;;;29.30;32.00;102023.22;5076216;28;45729;-72
2022/10/12 08:53:11;;;;;;;;;20.00;19.50;;;;;30.16;29.01;102028.38;5076366;27;45452;-73
2022/10/12 08:55:44;;;;;;;;;16.75;15.25;;;;;30.47;29.41;102032.84;5076775;28;45337;-74
2022/10/12 08:58:22;;;;;;;;;21.50;19.50;;;;;30.75;28.48;102008.19;5076427;28;45516;-73
2022/10/12 09:01:10;;;;;;;;;17.75;17.00;;;;;31.47;27.90;102031.16;5075045;28;47255;-72
2022/10/12 09:03:59;;;;;;;;;13.75;12.75;;;;;32.12;27.68;102022.69;5075872;28;45436;-72
2022/10/12 09:06:32;;;;;;;;;16.50;15.50;;;;;32.61;26.44;102018.06;5076093;28;45293;-72
2022/10/12 09:09:32;;;;;;;;;17.50;16.25;;;;;32.89;26.51;102024.53;5075855;28;45371;-72
2022/10/12 09:12:04;;;;;;;;;19.75;18.25;;;;;32.91;26.27;102019.69;5055284;28;45317;-72
2022/10/12 09:14:36;;;;;;;;;17.50;17.00;;;;;32.45;26.00;102010.16;5055348;28;45425;-72
2022/10/12 09:17:16;;;;;;;;;16.00;16.00;;;;;32.10;26.71;102010.19;5055462;28;45425;-72
2022/10/12 09:19:41;;;;;;;;;19.00;17.75;;;;;31.67;27.89;102013.94;5054299;28;45592;-72
2022/10/12 09:22:17;;;;;;;;;23.50;21.00;;;;;31.33;28.15;102026.59;5054340;28;45389;-72
2022/10/12 09:24:45;;;;;;;;;19.75;19.25;;;;;31.49;27.66;102022.69;5055748;28;45303;-72
2022/10/12 09:27:14;;;;;;;;;22.00;19.00;;;;;31.77;27.20;101997.91;5055845;28;45366;-72
2022/10/12 09:29:40;;;;;;;;;20.50;17.00;;;;;32.10;27.32;102016.56;5055808;28;45633;-72
2022/10/12 09:32:34;;;;;;;;;23.00;20.75;;;;;32.13;27.74;101999.56;5053754;28;46295;-72
2022/10/12 09:35:03;;;;;;;;;14.25;12.75;;;;;32.84;26.46;102006.69;5056367;28;45375;-72
2022/10/12 09:37:31;;;;;;;;;22.00;19.50;;;;;33.14;25.78;101981.41;5055927;28;45375;-72
2022/10/12 09:39:57;;;;;;;;;15.50;15.50;;;;;33.12;26.00;101975.28;5055519;28;45316;-72
2022/10/12 09:42:22;;;;;;;;;22.50;19.50;;;;;33.04;25.82;102003.09;5053919;28;45391;-73
2022/10/12 09:44:54;;;;;;;;;16.00;15.00;;;;;32.59;26.51;102011.91;5055386;28;45405;-72
2022/10/12 09:47:19;;;;;;;;;16.00;14.75;;;;;32.35;26.80;102003.13;5055822;28;45342;-72
2022/10/12 09:49:49;;;;;;;;;19.00;16.00;;;;;32.19;27.48;101996.03;5055438;28;45474;-73
2022/10/12 09:52:18;;;;;;;;;18.75;16.50;;;;;31.99;28.12;102003.34;5055789;28;45413;-72
2022/10/12 09:55:06;;;;;;;;;17.75;17.75;;;;;31.29;28.25;101994.97;5055884;28;45344;-73
2022/10/12 09:57:35;;;;;;;;;21.25;18.00;;;;;30.66;29.05;101996.44;5055503;28;45385;-71
2022/10/12 10:00:07;;;;;;;;;17.00;15.75;;;;;30.50;29.28;101994.78;5055259;28;45532;-72
2022/10/12 10:02:46;;;;;;;;;18.75;18.50;;;;;30.09;30.03;101988.94;5055163;28;45593;-71
2022/10/12 10:05:26;;;;;;;;;21.25;16.75;;;;;29.42;30.78;101993.41;5054015;28;45824;-72
2022/10/12 10:07:52;;;;;;;;;21.00;21.00;;;;;29.28;30.82;101989.59;5055307;28;45364;-72
2022/10/12 10:10:22;;;;;;;;;19.75;18.50;;;;;28.73;32.55;101981.38;5064062;28;45436;-72
2022/10/12 10:12:54;;;;;;;;;22.00;21.50;;;;;28.32;32.41;101971.47;5075216;28;45609;-72
2022/10/12 10:15:28;;;;;;;;;18.00;18.00;;;;;27.93;33.61;101969.53;5072349;28;45667;-71
2022/10/12 10:17:59;;;;;;;;;23.25;21.50;;;;;27.64;34.24;101964.66;5074689;28;45418;-72
2022/10/12 10:20:41;;;;;;;;;20.00;19.00;;;;;27.50;35.45;101966.22;5074874;27;45515;-71
2022/10/12 10:23:24;;;;;;;;;19.25;18.00;;;;;27.26;35.77;101953.38;5074622;28;45683;-72
2022/10/12 10:26:06;;;;;;;;;21.50;19.50;;;;;27.11;35.49;101962.28;5074890;28;45320;-72
2022/10/12 10:28:34;;;;;;;;;25.00;20.25;;;;;26.93;35.85;101973.41;5075246;28;45342;-72
2022/10/12 10:31:20;;;;;;;;;21.00;19.75;;;;;26.40;37.19;101919.91;5074342;28;45401;-72
2022/10/12 10:34:17;;;;;;;;;18.75;17.25;;;;;26.36;37.19;101960.44;5077984;28;46176;-71
2022/10/12 10:36:47;;;;;;;;;24.25;18.00;;;;;26.29;37.28;101967.56;5078713;28;45396;-71
2022/10/12 10:39:18;;;;;;;;;15.75;14.25;;;;;25.94;39.14;101981.25;5078377;28;45785;-72
2022/10/12 10:41:43;;;;;;;;;16.75;16.00;;;;;25.46;38.62;101936.22;5077976;28;45539;-71
2022/10/12 10:44:25;;;;;;;;;17.50;17.25;;;;;25.57;38.71;101963.25;5046496;28;46328;-70
2022/10/12 10:46:53;;;;;;;;;19.50;17.00;;;;;25.41;39.32;101954.94;5074231;28;45540;-72
2022/10/12 10:49:58;;;;;;;;;16.75;16.50;;;;;25.17;39.36;101949.13;5061967;28;45262;-71
2022/10/12 10:52:23;;;;;;;;;16.25;15.25;;;;;24.90;41.14;101954.66;5078113;27;45240;-72
2022/10/12 10:55:03;;;;;;;;;16.50;14.75;;;;;24.64;40.68;101964.47;5075968;27;45943;-71
2022/10/12 10:57:29;;;;;;;;;16.50;15.75;;;;;24.19;42.50;101955.25;5075853;27;45736;-72
2022/10/12 11:00:01;;;;;;;;;13.00;13.00;;;;;24.11;42.24;101957.03;5072180;28;45874;-73
2022/10/12 11:02:44;;;;;;;;;18.75;14.50;;;;;23.83;43.35;101959.69;5078080;28;45511;-73
2022/10/12 11:05:17;;;;;;;;;11.50;11.50;;;;;23.77;43.32;101954.84;5078311;28;46441;-73
2022/10/12 11:07:48;;;;;;;;;16.25;13.75;;;;;23.64;44.00;101955.16;5076071;27;45335;-73
2022/10/12 11:10:29;;;;;;;;;10.00;10.00;;;;;23.49;45.09;101958.34;5077240;27;45417;-72
2022/10/12 11:13:18;;;;;;;;;14.50;12.75;;;;;23.25;45.77;101957.97;5075616;28;45433;-72
2022/10/12 11:16:15;;;;;;;;;12.50;10.75;;;;;23.01;46.25;101951.94;5076421;28;46698;-73
2022/10/12 11:18:48;;;;;;;;;12.25;12.25;;;;;22.87;46.31;101952.34;5076320;28;45376;-72
2022/10/12 11:21:21;;;;;;;;;12.25;11.25;;;;;22.74;46.73;101962.66;5058965;28;45350;-72
2022/10/12 11:23:55;;;;;;;;;14.75;11.75;;;;;22.47;46.71;101926.13;5077326;27;45602;-73